sensor_id;sensor_type;location;lat;lon;timestamp;pressure;altitude;pressure_sealevel;temperature;humidity
50430;BME280;36359;41.556;-8.418;2023-02-20T00:01:16;100704.00;;;13.69;69.04
50430;BME280;36359;41.556;-8.418;2023-02-20T00:03:44;100709.47;;;13.69;69.07
50430;BME280;36359;41.556;-8.418;2023-02-20T00:06:09;100710.31;;;13.69;68.92
50430;BME280;36359;41.556;-8.418;2023-02-20T00:08:35;100696.28;;;13.64;69.15
50430;BME280;36359;41.556;-8.418;2023-02-20T00:11:01;100700.31;;;13.52;70.99
50430;BME280;36359;41.556;-8.418;2023-02-20T00:13:27;100699.19;;;13.62;70.08
50430;BME280;36359;41.556;-8.418;2023-02-20T00:15:52;100699.66;;;13.58;70.44
50430;BME280;36359;41.556;-8.418;2023-02-20T00:18:18;100694.84;;;13.52;70.81
50430;BME280;36359;41.556;-8.418;2023-02-20T00:20:44;100690.44;;;13.51;71.04
50430;BME280;36359;41.556;-8.418;2023-02-20T00:23:10;100694.34;;;13.48;71.41
50430;BME280;36359;41.556;-8.418;2023-02-20T00:25:35;100692.44;;;13.49;71.57
50430;BME280;36359;41.556;-8.418;2023-02-20T00:28:01;100679.28;;;13.44;72.10
50430;BME280;36359;41.556;-8.418;2023-02-20T00:30:27;100683.91;;;13.44;71.73
50430;BME280;36359;41.556;-8.418;2023-02-20T00:32:54;100682.84;;;13.36;71.74
50430;BME280;36359;41.556;-8.418;2023-02-20T00:35:21;100690.06;;;13.46;71.36
50430;BME280;36359;41.556;-8.418;2023-02-20T00:37:48;100688.94;;;13.56;70.71
50430;BME280;36359;41.556;-8.418;2023-02-20T00:40:15;100688.13;;;13.64;70.61
50430;BME280;36359;41.556;-8.418;2023-02-20T00:42:41;100679.25;;;13.62;70.50
50430;BME280;36359;41.556;-8.418;2023-02-20T00:47:40;100687.13;;;13.65;71.01
50430;BME280;36359;41.556;-8.418;2023-02-20T00:50:07;100675.66;;;13.61;71.34
50430;BME280;36359;41.556;-8.418;2023-02-20T00:52:33;100683.88;;;13.70;71.44
50430;BME280;36359;41.556;-8.418;2023-02-20T00:55:01;100678.88;;;13.57;71.31
50430;BME280;36359;41.556;-8.418;2023-02-20T00:57:27;100677.84;;;13.58;70.63
50430;BME280;36359;41.556;-8.418;2023-02-20T00:59:53;100674.47;;;13.64;69.99
50430;BME280;36359;41.556;-8.418;2023-02-20T01:02:19;100661.44;;;13.50;69.82
50430;BME280;36359;41.556;-8.418;2023-02-20T01:04:46;100660.91;;;13.46;68.00
50430;BME280;36359;41.556;-8.418;2023-02-20T01:07:12;100656.09;;;13.66;66.06
50430;BME280;36359;41.556;-8.418;2023-02-20T01:09:37;100652.13;;;13.86;64.07
50430;BME280;36359;41.556;-8.418;2023-02-20T01:12:03;100652.72;;;14.06;60.89
50430;BME280;36359;41.556;-8.418;2023-02-20T01:14:29;100647.81;;;14.26;59.76
50430;BME280;36359;41.556;-8.418;2023-02-20T01:16:55;100643.22;;;14.35;58.94
50430;BME280;36359;41.556;-8.418;2023-02-20T01:19:22;100635.25;;;14.42;58.49
50430;BME280;36359;41.556;-8.418;2023-02-20T01:21:48;100634.91;;;14.45;58.59
50430;BME280;36359;41.556;-8.418;2023-02-20T01:24:16;100633.53;;;14.49;58.30
50430;BME280;36359;41.556;-8.418;2023-02-20T01:26:43;100636.63;;;14.46;57.98
50430;BME280;36359;41.556;-8.418;2023-02-20T01:29:09;100636.28;;;14.49;58.10
50430;BME280;36359;41.556;-8.418;2023-02-20T01:31:35;100630.88;;;14.57;58.98
50430;BME280;36359;41.556;-8.418;2023-02-20T01:34:01;100630.88;;;14.65;59.30
50430;BME280;36359;41.556;-8.418;2023-02-20T01:36:27;100632.25;;;14.53;60.20
50430;BME280;36359;41.556;-8.418;2023-02-20T01:38:53;100634.38;;;13.91;66.21
50430;BME280;36359;41.556;-8.418;2023-02-20T01:41:20;100629.56;;;13.76;67.63
50430;BME280;36359;41.556;-8.418;2023-02-20T01:43:46;100629.09;;;13.55;69.06
50430;BME280;36359;41.556;-8.418;2023-02-20T01:49:03;100629.16;;;13.63;68.56
50430;BME280;36359;41.556;-8.418;2023-02-20T01:51:37;100635.09;;;13.58;69.28
50430;BME280;36359;41.556;-8.418;2023-02-20T01:54:07;100625.84;;;13.51;69.87
50430;BME280;36359;41.556;-8.418;2023-02-20T01:56:34;100623.00;;;13.61;68.68
50430;BME280;36359;41.556;-8.418;2023-02-20T01:59:02;100626.00;;;13.50;69.17
50430;BME280;36359;41.556;-8.418;2023-02-20T02:01:31;100616.00;;;13.32;69.76
50430;BME280;36359;41.556;-8.418;2023-02-20T02:04:00;100614.53;;;13.20;69.77
50430;BME280;36359;41.556;-8.418;2023-02-20T02:06:28;100615.19;;;13.14;70.08
50430;BME280;36359;41.556;-8.418;2023-02-20T02:08:56;100612.72;;;13.03;69.50
50430;BME280;36359;41.556;-8.418;2023-02-20T02:11:26;100615.91;;;13.16;69.10
50430;BME280;36359;41.556;-8.418;2023-02-20T02:13:51;100603.31;;;13.15;68.28
50430;BME280;36359;41.556;-8.418;2023-02-20T02:38:08;100589.75;;;14.00;62.31
50430;BME280;36359;41.556;-8.418;2023-02-20T02:43:43;100592.28;;;13.93;64.84
50430;BME280;36359;41.556;-8.418;2023-02-20T02:46:25;100591.19;;;13.70;65.60
50430;BME280;36359;41.556;-8.418;2023-02-20T02:51:48;100595.91;;;13.59;67.69
50430;BME280;36359;41.556;-8.418;2023-02-20T02:54:17;100595.78;;;13.69;68.05
50430;BME280;36359;41.556;-8.418;2023-02-20T02:56:51;100591.31;;;13.60;68.10
50430;BME280;36359;41.556;-8.418;2023-02-20T02:59:28;100587.16;;;13.48;69.91
50430;BME280;36359;41.556;-8.418;2023-02-20T03:02:02;100582.00;;;13.36;70.67
50430;BME280;36359;41.556;-8.418;2023-02-20T03:04:31;100584.25;;;13.23;71.50
50430;BME280;36359;41.556;-8.418;2023-02-20T03:07:07;100583.13;;;13.26;71.32
50430;BME280;36359;41.556;-8.418;2023-02-20T03:09:39;100586.28;;;13.39;70.77
50430;BME280;36359;41.556;-8.418;2023-02-20T03:12:07;100587.16;;;13.48;70.42
50430;BME280;36359;41.556;-8.418;2023-02-20T03:14:46;100589.53;;;13.43;70.69
50430;BME280;36359;41.556;-8.418;2023-02-20T03:20:35;100593.94;;;13.44;71.09
50430;BME280;36359;41.556;-8.418;2023-02-20T03:23:03;100598.66;;;13.33;71.50
50430;BME280;36359;41.556;-8.418;2023-02-20T03:25:35;100584.72;;;13.36;72.08
50430;BME280;36359;41.556;-8.418;2023-02-20T03:28:10;100579.97;;;13.38;72.88
50430;BME280;36359;41.556;-8.418;2023-02-20T03:36:28;100541.63;;;13.40;73.92
50430;BME280;36359;41.556;-8.418;2023-02-20T03:39:24;100529.09;;;13.47;69.86
50430;BME280;36359;41.556;-8.418;2023-02-20T03:42:11;100542.63;;;13.65;68.45
50430;BME280;36359;41.556;-8.418;2023-02-20T03:45:04;100550.53;;;13.93;67.63
50430;BME280;36359;41.556;-8.418;2023-02-20T03:47:33;100573.91;;;13.95;71.02
50430;BME280;36359;41.556;-8.418;2023-02-20T03:50:03;100574.38;;;13.91;72.05
50430;BME280;36359;41.556;-8.418;2023-02-20T03:52:51;100579.28;;;13.71;73.22
50430;BME280;36359;41.556;-8.418;2023-02-20T03:55:17;100576.09;;;13.92;69.73
50430;BME280;36359;41.556;-8.418;2023-02-20T03:57:48;100559.13;;;13.63;74.09
50430;BME280;36359;41.556;-8.418;2023-02-20T04:00:18;100554.75;;;13.36;75.47
50430;BME280;36359;41.556;-8.418;2023-02-20T04:02:51;100561.09;;;13.19;76.22
50430;BME280;36359;41.556;-8.418;2023-02-20T04:05:28;100551.28;;;13.00;76.25
50430;BME280;36359;41.556;-8.418;2023-02-20T04:08:07;100549.34;;;13.45;70.83
50430;BME280;36359;41.556;-8.418;2023-02-20T04:10:40;100543.31;;;13.33;72.77
50430;BME280;36359;41.556;-8.418;2023-02-20T04:13:09;100542.94;;;13.28;75.33
50430;BME280;36359;41.556;-8.418;2023-02-20T04:15:36;100532.28;;;13.43;74.30
50430;BME280;36359;41.556;-8.418;2023-02-20T04:18:04;100533.84;;;13.19;75.67
50430;BME280;36359;41.556;-8.418;2023-02-20T04:20:31;100524.75;;;13.10;75.46
50430;BME280;36359;41.556;-8.418;2023-02-20T04:23:20;100529.63;;;12.99;75.69
50430;BME280;36359;41.556;-8.418;2023-02-20T04:25:51;100518.69;;;12.90;75.40
50430;BME280;36359;41.556;-8.418;2023-02-20T04:28:20;100523.78;;;12.85;74.31
50430;BME280;36359;41.556;-8.418;2023-02-20T04:31:00;100528.41;;;12.93;72.97
50430;BME280;36359;41.556;-8.418;2023-02-20T04:33:25;100518.34;;;12.93;72.15
50430;BME280;36359;41.556;-8.418;2023-02-20T04:35:56;100526.59;;;13.02;73.69
50430;BME280;36359;41.556;-8.418;2023-02-20T04:38:24;100524.44;;;12.87;76.61
50430;BME280;36359;41.556;-8.418;2023-02-20T04:40:50;100522.03;;;12.58;79.12
50430;BME280;36359;41.556;-8.418;2023-02-20T04:43:18;100523.72;;;12.77;77.39
50430;BME280;36359;41.556;-8.418;2023-02-20T04:45:44;100529.16;;;12.77;78.44
50430;BME280;36359;41.556;-8.418;2023-02-20T04:48:10;100526.38;;;12.69;79.50
50430;BME280;36359;41.556;-8.418;2023-02-20T04:50:36;100529.22;;;12.41;79.92
50430;BME280;36359;41.556;-8.418;2023-02-20T04:53:04;100523.50;;;12.53;79.43
50430;BME280;36359;41.556;-8.418;2023-02-20T04:55:30;100529.34;;;12.58;79.86
50430;BME280;36359;41.556;-8.418;2023-02-20T04:57:59;100520.84;;;12.61;79.19
50430;BME280;36359;41.556;-8.418;2023-02-20T05:00:30;100521.50;;;12.55;80.19
50430;BME280;36359;41.556;-8.418;2023-02-20T05:02:57;100521.13;;;12.76;77.48
50430;BME280;36359;41.556;-8.418;2023-02-20T05:05:25;100529.47;;;12.74;78.79
50430;BME280;36359;41.556;-8.418;2023-02-20T05:08:09;100524.03;;;12.74;78.76
50430;BME280;36359;41.556;-8.418;2023-02-20T05:10:36;100523.00;;;12.75;78.11
50430;BME280;36359;41.556;-8.418;2023-02-20T05:13:02;100530.84;;;12.78;78.03
50430;BME280;36359;41.556;-8.418;2023-02-20T05:15:30;100532.22;;;12.82;76.60
50430;BME280;36359;41.556;-8.418;2023-02-20T05:17:59;100532.03;;;13.02;75.43
50430;BME280;36359;41.556;-8.418;2023-02-20T05:20:25;100526.16;;;12.88;75.97
50430;BME280;36359;41.556;-8.418;2023-02-20T05:23:11;100525.41;;;12.78;76.06
50430;BME280;36359;41.556;-8.418;2023-02-20T05:25:37;100532.50;;;12.71;75.96
50430;BME280;36359;41.556;-8.418;2023-02-20T05:28:02;100538.59;;;12.91;74.47
50430;BME280;36359;41.556;-8.418;2023-02-20T05:30:28;100539.50;;;12.73;75.44
50430;BME280;36359;41.556;-8.418;2023-02-20T05:32:54;100543.94;;;12.75;75.64
50430;BME280;36359;41.556;-8.418;2023-02-20T05:35:19;100550.03;;;12.94;73.92
50430;BME280;36359;41.556;-8.418;2023-02-20T05:37:45;100538.22;;;12.86;74.65
50430;BME280;36359;41.556;-8.418;2023-02-20T05:40:11;100540.25;;;12.84;74.99
50430;BME280;36359;41.556;-8.418;2023-02-20T05:42:37;100538.56;;;12.83;74.37
50430;BME280;36359;41.556;-8.418;2023-02-20T05:45:03;100537.53;;;12.84;74.14
50430;BME280;36359;41.556;-8.418;2023-02-20T05:47:28;100540.56;;;12.81;74.32
50430;BME280;36359;41.556;-8.418;2023-02-20T05:49:54;100541.63;;;12.88;73.10
50430;BME280;36359;41.556;-8.418;2023-02-20T05:52:20;100539.72;;;12.80;73.66
50430;BME280;36359;41.556;-8.418;2023-02-20T05:54:46;100540.50;;;12.72;72.64
50430;BME280;36359;41.556;-8.418;2023-02-20T05:57:12;100547.03;;;12.80;71.76
50430;BME280;36359;41.556;-8.418;2023-02-20T05:59:38;100539.59;;;12.64;71.05
50430;BME280;36359;41.556;-8.418;2023-02-20T06:02:04;100537.78;;;12.72;69.94
50430;BME280;36359;41.556;-8.418;2023-02-20T06:04:29;100537.16;;;13.05;70.33
50430;BME280;36359;41.556;-8.418;2023-02-20T06:06:55;100534.38;;;12.96;70.12
50430;BME280;36359;41.556;-8.418;2023-02-20T06:09:21;100536.13;;;13.06;70.06
50430;BME280;36359;41.556;-8.418;2023-02-20T06:11:52;100528.94;;;12.96;70.92
50430;BME280;36359;41.556;-8.418;2023-02-20T06:14:20;100535.66;;;12.84;71.30
50430;BME280;36359;41.556;-8.418;2023-02-20T06:16:46;100534.31;;;12.62;71.07
50430;BME280;36359;41.556;-8.418;2023-02-20T06:19:23;100533.97;;;12.83;67.61
50430;BME280;36359;41.556;-8.418;2023-02-20T06:21:50;100536.44;;;12.94;67.04
50430;BME280;36359;41.556;-8.418;2023-02-20T06:24:18;100528.44;;;12.75;70.23
50430;BME280;36359;41.556;-8.418;2023-02-20T06:26:44;100525.19;;;12.71;74.12
50430;BME280;36359;41.556;-8.418;2023-02-20T06:29:13;100521.56;;;12.63;75.61
50430;BME280;36359;41.556;-8.418;2023-02-20T06:31:39;100520.25;;;12.49;76.46
50430;BME280;36359;41.556;-8.418;2023-02-20T06:34:06;100521.50;;;12.37;76.80
50430;BME280;36359;41.556;-8.418;2023-02-20T06:36:35;100528.63;;;12.73;74.44
50430;BME280;36359;41.556;-8.418;2023-02-20T06:39:02;100523.38;;;12.80;74.02
50430;BME280;36359;41.556;-8.418;2023-02-20T06:41:28;100519.22;;;12.68;74.79
50430;BME280;36359;41.556;-8.418;2023-02-20T06:43:54;100519.22;;;12.68;75.08
50430;BME280;36359;41.556;-8.418;2023-02-20T06:46:19;100523.00;;;12.75;73.71
50430;BME280;36359;41.556;-8.418;2023-02-20T06:48:49;100526.50;;;12.67;74.78
50430;BME280;36359;41.556;-8.418;2023-02-20T06:51:17;100523.56;;;12.61;75.10
50430;BME280;36359;41.556;-8.418;2023-02-20T06:53:43;100524.06;;;12.56;74.99
50430;BME280;36359;41.556;-8.418;2023-02-20T06:56:09;100524.63;;;12.42;75.80
50430;BME280;36359;41.556;-8.418;2023-02-20T06:58:36;100520.63;;;12.54;74.34
50430;BME280;36359;41.556;-8.418;2023-02-20T07:01:02;100524.38;;;12.79;72.35
50430;BME280;36359;41.556;-8.418;2023-02-20T07:03:27;100530.09;;;12.94;71.91
50430;BME280;36359;41.556;-8.418;2023-02-20T07:05:53;100530.53;;;12.81;72.85
50430;BME280;36359;41.556;-8.418;2023-02-20T07:08:19;100532.63;;;12.87;72.60
50430;BME280;36359;41.556;-8.418;2023-02-20T07:10:44;100547.97;;;12.88;72.43
50430;BME280;36359;41.556;-8.418;2023-02-20T07:13:10;100546.50;;;13.02;71.98
50430;BME280;36359;41.556;-8.418;2023-02-20T07:15:36;100550.72;;;12.96;72.48
50430;BME280;36359;41.556;-8.418;2023-02-20T07:18:02;100554.41;;;12.87;72.07
50430;BME280;36359;41.556;-8.418;2023-02-20T07:20:28;100552.50;;;12.80;73.92
50430;BME280;36359;41.556;-8.418;2023-02-20T07:22:53;100552.84;;;12.85;74.54
50430;BME280;36359;41.556;-8.418;2023-02-20T07:25:19;100562.03;;;12.84;74.05
50430;BME280;36359;41.556;-8.418;2023-02-20T07:27:45;100560.13;;;13.02;73.29
50430;BME280;36359;41.556;-8.418;2023-02-20T07:30:11;100568.16;;;13.04;73.58
50430;BME280;36359;41.556;-8.418;2023-02-20T07:32:37;100567.44;;;13.02;73.35
50430;BME280;36359;41.556;-8.418;2023-02-20T07:35:03;100580.41;;;13.08;72.00
50430;BME280;36359;41.556;-8.418;2023-02-20T07:37:30;100570.47;;;12.99;68.19
50430;BME280;36359;41.556;-8.418;2023-02-20T07:39:56;100571.28;;;13.17;65.34
50430;BME280;36359;41.556;-8.418;2023-02-20T07:42:21;100579.34;;;13.53;62.15
50430;BME280;36359;41.556;-8.418;2023-02-20T07:44:49;100580.13;;;13.79;61.72
50430;BME280;36359;41.556;-8.418;2023-02-20T07:47:15;100573.56;;;13.98;57.05
50430;BME280;36359;41.556;-8.418;2023-02-20T07:49:42;100587.31;;;14.39;54.55
50430;BME280;36359;41.556;-8.418;2023-02-20T07:52:08;100580.31;;;14.45;56.65
50430;BME280;36359;41.556;-8.418;2023-02-20T07:54:34;100572.09;;;14.28;56.47
50430;BME280;36359;41.556;-8.418;2023-02-20T07:57:00;100575.50;;;14.22;57.08
50430;BME280;36359;41.556;-8.418;2023-02-20T07:59:25;100577.56;;;14.37;60.17
50430;BME280;36359;41.556;-8.418;2023-02-20T08:01:51;100580.28;;;14.28;56.74
50430;BME280;36359;41.556;-8.418;2023-02-20T08:04:16;100580.31;;;14.37;57.09
50430;BME280;36359;41.556;-8.418;2023-02-20T08:06:42;100575.16;;;14.25;57.05
50430;BME280;36359;41.556;-8.418;2023-02-20T08:09:08;100577.22;;;14.31;55.31
50430;BME280;36359;41.556;-8.418;2023-02-20T08:11:35;100572.09;;;14.28;56.03
50430;BME280;36359;41.556;-8.418;2023-02-20T08:14:03;100574.16;;;14.35;54.88
50430;BME280;36359;41.556;-8.418;2023-02-20T08:16:29;100575.50;;;14.30;55.55
50430;BME280;36359;41.556;-8.418;2023-02-20T08:18:55;100578.25;;;14.30;56.16
50430;BME280;36359;41.556;-8.418;2023-02-20T08:21:21;100586.59;;;14.37;55.88
50430;BME280;36359;41.556;-8.418;2023-02-20T08:23:46;100586.41;;;14.22;63.33
50430;BME280;36359;41.556;-8.418;2023-02-20T08:26:12;100588.25;;;13.97;64.94
50430;BME280;36359;41.556;-8.418;2023-02-20T08:28:38;100583.22;;;13.84;66.22
50430;BME280;36359;41.556;-8.418;2023-02-20T08:31:04;100590.19;;;13.79;66.57
50430;BME280;36359;41.556;-8.418;2023-02-20T08:33:30;100591.13;;;13.96;60.21
50430;BME280;36359;41.556;-8.418;2023-02-20T08:35:56;100590.13;;;14.05;59.53
50430;BME280;36359;41.556;-8.418;2023-02-20T08:38:26;100590.50;;;14.18;60.82
50430;BME280;36359;41.556;-8.418;2023-02-20T08:40:52;100600.59;;;14.34;62.40
50430;BME280;36359;41.556;-8.418;2023-02-20T08:43:17;100599.38;;;14.28;62.99
50430;BME280;36359;41.556;-8.418;2023-02-20T08:45:43;100597.69;;;14.44;62.59
50430;BME280;36359;41.556;-8.418;2023-02-20T08:50:36;100604.00;;;14.36;60.63
50430;BME280;36359;41.556;-8.418;2023-02-20T08:53:01;100610.47;;;14.27;59.44
50430;BME280;36359;41.556;-8.418;2023-02-20T08:55:27;100611.00;;;14.30;58.83
50430;BME280;36359;41.556;-8.418;2023-02-20T08:57:53;100601.31;;;14.44;58.23
50430;BME280;36359;41.556;-8.418;2023-02-20T09:00:20;100607.47;;;14.54;57.13
50430;BME280;36359;41.556;-8.418;2023-02-20T09:02:46;100603.56;;;14.65;55.06
50430;BME280;36359;41.556;-8.418;2023-02-20T09:05:13;100598.28;;;14.80;54.10
50430;BME280;36359;41.556;-8.418;2023-02-20T09:07:39;100604.75;;;14.87;53.63
50430;BME280;36359;41.556;-8.418;2023-02-20T09:10:05;100620.66;;;15.00;53.18
50430;BME280;36359;41.556;-8.418;2023-02-20T09:12:31;100610.72;;;14.99;53.71
50430;BME280;36359;41.556;-8.418;2023-02-20T09:14:57;100604.06;;;15.02;53.34
50430;BME280;36359;41.556;-8.418;2023-02-20T09:17:27;100605.25;;;15.07;53.37
50430;BME280;36359;41.556;-8.418;2023-02-20T09:19:53;100597.06;;;15.07;53.18
50430;BME280;36359;41.556;-8.418;2023-02-20T09:22:23;100606.63;;;15.11;52.86
50430;BME280;36359;41.556;-8.418;2023-02-20T09:24:49;100603.88;;;15.19;52.26
50430;BME280;36359;41.556;-8.418;2023-02-20T09:27:15;100596.03;;;15.25;52.11
50430;BME280;36359;41.556;-8.418;2023-02-20T09:29:40;100599.78;;;15.24;52.63
50430;BME280;36359;41.556;-8.418;2023-02-20T09:32:07;100597.06;;;15.15;53.15
50430;BME280;36359;41.556;-8.418;2023-02-20T09:34:33;100597.72;;;15.17;53.46
50430;BME280;36359;41.556;-8.418;2023-02-20T09:36:59;100600.81;;;15.22;53.03
50430;BME280;36359;41.556;-8.418;2023-02-20T09:39:25;100590.56;;;15.25;53.10
50430;BME280;36359;41.556;-8.418;2023-02-20T09:44:54;100598.91;;;15.23;54.29
50430;BME280;36359;41.556;-8.418;2023-02-20T09:47:46;100601.50;;;15.25;54.21
50430;BME280;36359;41.556;-8.418;2023-02-20T09:53:22;100607.66;;;15.27;55.48
50430;BME280;36359;41.556;-8.418;2023-02-20T09:55:51;100615.50;;;15.30;55.57
50430;BME280;36359;41.556;-8.418;2023-02-20T10:01:02;100612.13;;;15.03;67.66
50430;BME280;36359;41.556;-8.418;2023-02-20T10:03:32;100611.41;;;15.01;67.88
50430;BME280;36359;41.556;-8.418;2023-02-20T10:06:11;100601.19;;;14.95;63.74
50430;BME280;36359;41.556;-8.418;2023-02-20T10:08:39;100604.91;;;15.18;56.37
50430;BME280;36359;41.556;-8.418;2023-02-20T10:11:07;100601.47;;;15.33;55.36
50430;BME280;36359;41.556;-8.418;2023-02-20T10:19:39;100609.94;;;15.71;53.31
50430;BME280;36359;41.556;-8.418;2023-02-20T10:22:17;100609.41;;;15.75;53.39
50430;BME280;36359;41.556;-8.418;2023-02-20T10:29:59;100619.31;;;15.76;59.45
50430;BME280;36359;41.556;-8.418;2023-02-20T10:32:41;100619.47;;;15.83;60.77
50430;BME280;36359;41.556;-8.418;2023-02-20T10:35:14;100617.25;;;15.78;61.59
50430;BME280;36359;41.556;-8.418;2023-02-20T10:37:46;100614.38;;;15.80;63.04
50430;BME280;36359;41.556;-8.418;2023-02-20T10:43:14;100611.38;;;15.98;61.04
50430;BME280;36359;41.556;-8.418;2023-02-20T10:45:56;100611.00;;;16.01;65.10
50430;BME280;36359;41.556;-8.418;2023-02-20T10:48:29;100607.56;;;16.07;65.83
50430;BME280;36359;41.556;-8.418;2023-02-20T10:51:12;100600.88;;;16.09;63.90
50430;BME280;36359;41.556;-8.418;2023-02-20T10:58:48;100597.66;;;16.29;62.02
50430;BME280;36359;41.556;-8.418;2023-02-20T11:01:19;100597.94;;;16.42;56.35
50430;BME280;36359;41.556;-8.418;2023-02-20T11:06:28;100591.03;;;16.77;56.76
50430;BME280;36359;41.556;-8.418;2023-02-20T11:08:54;100598.56;;;16.98;53.73
50430;BME280;36359;41.556;-8.418;2023-02-20T11:11:41;100600.22;;;17.22;53.94
50430;BME280;36359;41.556;-8.418;2023-02-20T11:19:50;100599.31;;;17.60;51.47
50430;BME280;36359;41.556;-8.418;2023-02-20T11:22:37;100595.22;;;17.56;56.62
50430;BME280;36359;41.556;-8.418;2023-02-20T11:25:20;100594.84;;;17.44;54.58
50430;BME280;36359;41.556;-8.418;2023-02-20T11:27:53;100592.97;;;17.44;55.49
50430;BME280;36359;41.556;-8.418;2023-02-20T11:30:56;100589.34;;;17.44;54.17
50430;BME280;36359;41.556;-8.418;2023-02-20T11:33:24;100589.25;;;17.37;52.38
50430;BME280;36359;41.556;-8.418;2023-02-20T11:35:55;100585.94;;;17.27;51.44
50430;BME280;36359;41.556;-8.418;2023-02-20T11:43:31;100577.72;;;17.27;52.31
50430;BME280;36359;41.556;-8.418;2023-02-20T11:46:36;100577.91;;;17.40;59.32
50430;BME280;36359;41.556;-8.418;2023-02-20T11:49:08;100574.69;;;17.52;59.19
50430;BME280;36359;41.556;-8.418;2023-02-20T11:54:13;100575.38;;;17.68;58.23
50430;BME280;36359;41.556;-8.418;2023-02-20T11:56:53;100575.38;;;17.83;57.78
50430;BME280;36359;41.556;-8.418;2023-02-20T11:59:32;100571.19;;;17.87;57.95
50430;BME280;36359;41.556;-8.418;2023-02-20T12:04:36;100564.69;;;17.74;61.47
50430;BME280;36359;41.556;-8.418;2023-02-20T12:07:25;100552.97;;;17.80;63.47
50430;BME280;36359;41.556;-8.418;2023-02-20T12:09:55;100562.22;;;17.79;60.67
50430;BME280;36359;41.556;-8.418;2023-02-20T12:12:22;100566.88;;;17.78;57.83
50430;BME280;36359;41.556;-8.418;2023-02-20T12:14:49;100567.16;;;17.83;59.36
50430;BME280;36359;41.556;-8.418;2023-02-20T12:20:14;100554.63;;;17.96;59.09
50430;BME280;36359;41.556;-8.418;2023-02-20T12:22:57;100549.25;;;17.87;57.41
50430;BME280;36359;41.556;-8.418;2023-02-20T12:41:31;100532.94;;;18.01;54.85
50430;BME280;36359;41.556;-8.418;2023-02-20T12:44:27;100524.78;;;18.07;54.26
50430;BME280;36359;41.556;-8.418;2023-02-20T13:00:40;100483.13;;;18.47;51.87
50430;BME280;36359;41.556;-8.418;2023-02-20T13:03:19;100480.28;;;18.61;51.09
50430;BME280;36359;41.556;-8.418;2023-02-20T13:05:48;100467.53;;;18.75;51.51
50430;BME280;36359;41.556;-8.418;2023-02-20T13:08:21;100465.31;;;18.86;51.91
50430;BME280;36359;41.556;-8.418;2023-02-20T13:13:18;100459.81;;;18.64;46.55
50430;BME280;36359;41.556;-8.418;2023-02-20T13:16:07;100458.16;;;18.70;46.65
50430;BME280;36359;41.556;-8.418;2023-02-20T13:18:53;100461.50;;;18.87;46.92
50430;BME280;36359;41.556;-8.418;2023-02-20T13:21:23;100463.31;;;18.79;46.38
50430;BME280;36359;41.556;-8.418;2023-02-20T13:23:49;100451.78;;;18.91;45.68
50430;BME280;36359;41.556;-8.418;2023-02-20T13:29:18;100456.06;;;18.72;45.54
50430;BME280;36359;41.556;-8.418;2023-02-20T13:31:48;100449.28;;;18.96;46.75
50430;BME280;36359;41.556;-8.418;2023-02-20T13:46:58;100420.94;;;18.95;46.09
50430;BME280;36359;41.556;-8.418;2023-02-20T13:52:32;100420.84;;;18.82;45.62
50430;BME280;36359;41.556;-8.418;2023-02-20T13:57:54;100411.28;;;19.06;44.66
50430;BME280;36359;41.556;-8.418;2023-02-20T14:02:53;100395.66;;;18.78;44.73
50430;BME280;36359;41.556;-8.418;2023-02-20T14:05:29;100396.06;;;18.75;44.81
50430;BME280;36359;41.556;-8.418;2023-02-20T14:07:56;100392.94;;;18.85;45.27
50430;BME280;36359;41.556;-8.418;2023-02-20T14:10:27;100391.75;;;18.66;44.74
50430;BME280;36359;41.556;-8.418;2023-02-20T14:13:01;100392.56;;;18.60;44.62
50430;BME280;36359;41.556;-8.418;2023-02-20T14:15:31;100388.50;;;18.56;44.66
50430;BME280;36359;41.556;-8.418;2023-02-20T14:17:57;100391.47;;;18.54;44.53
50430;BME280;36359;41.556;-8.418;2023-02-20T14:20:41;100397.91;;;18.68;44.48
50430;BME280;36359;41.556;-8.418;2023-02-20T14:25:37;100396.38;;;18.94;44.32
50430;BME280;36359;41.556;-8.418;2023-02-20T14:28:12;100401.13;;;19.06;44.51
50430;BME280;36359;41.556;-8.418;2023-02-20T14:30:41;100396.44;;;19.00;43.85
50430;BME280;36359;41.556;-8.418;2023-02-20T14:33:25;100396.09;;;18.82;43.90
50430;BME280;36359;41.556;-8.418;2023-02-20T14:36:07;100392.53;;;18.88;44.08
50430;BME280;36359;41.556;-8.418;2023-02-20T14:38:49;100392.59;;;18.95;44.70
50430;BME280;36359;41.556;-8.418;2023-02-20T14:41:22;100390.03;;;18.93;44.73
50430;BME280;36359;41.556;-8.418;2023-02-20T14:43:56;100391.53;;;18.68;45.29
50430;BME280;36359;41.556;-8.418;2023-02-20T14:46:25;100389.91;;;18.73;44.68
50430;BME280;36359;41.556;-8.418;2023-02-20T14:51:32;100375.16;;;18.74;46.40
50430;BME280;36359;41.556;-8.418;2023-02-20T14:54:01;100378.00;;;18.66;46.82
50430;BME280;36359;41.556;-8.418;2023-02-20T14:56:27;100381.00;;;18.71;45.22
50430;BME280;36359;41.556;-8.418;2023-02-20T14:58:53;100377.56;;;18.63;44.75
50430;BME280;36359;41.556;-8.418;2023-02-20T15:01:34;100374.09;;;18.75;44.84
50430;BME280;36359;41.556;-8.418;2023-02-20T15:06:35;100372.78;;;18.71;45.80
50430;BME280;36359;41.556;-8.418;2023-02-20T15:09:03;100370.84;;;18.65;45.85
50430;BME280;36359;41.556;-8.418;2023-02-20T15:11:30;100367.88;;;18.67;46.10
50430;BME280;36359;41.556;-8.418;2023-02-20T15:13:56;100367.88;;;18.67;45.40
50430;BME280;36359;41.556;-8.418;2023-02-20T15:16:26;100362.34;;;18.60;45.67
50430;BME280;36359;41.556;-8.418;2023-02-20T15:18:53;100366.38;;;18.64;45.48
50430;BME280;36359;41.556;-8.418;2023-02-20T15:21:40;100362.59;;;18.65;46.69
50430;BME280;36359;41.556;-8.418;2023-02-20T15:24:34;100372.06;;;18.63;46.73
50430;BME280;36359;41.556;-8.418;2023-02-20T15:27:26;100369.91;;;18.58;47.13
50430;BME280;36359;41.556;-8.418;2023-02-20T15:30:08;100379.19;;;18.50;47.09
50430;BME280;36359;41.556;-8.418;2023-02-20T15:32:34;100375.28;;;18.38;47.39